Time;durP1;ratioP1;P1;durP2;ratioP2;P2;SDS_P1;SDS_P2;PMS_P1;PMS_P2;Temp;Humidity;BMP_temperature;BMP_pressure;BME280_temperature;BME280_humidity;BME280_pressure;Samples;Min_cycle;Max_cycle;Signal;HPM_P1;HPM_P2
2022/03/09 00:02:14;;;;;;;32.23;29.63;;;;;;;-141.02;100.00;55844.97;5135517;27;20228;-74
2022/03/09 00:04:41;;;;;;;30.67;28.30;;;;;;;-141.02;100.00;55844.97;5135198;27;20666;-75
2022/03/09 00:07:08;;;;;;;22.30;21.10;;;;;;;-141.02;100.00;55844.97;5135553;27;20196;-74
2022/03/09 00:09:35;;;;;;;22.90;21.60;;;;;;;-141.02;100.00;55844.97;5135426;27;20196;-75
2022/03/09 00:12:03;;;;;;;23.20;21.77;;;;;;;-141.02;100.00;55844.97;5135121;27;20647;-75
2022/03/09 00:14:30;;;;;;;27.50;25.07;;;;;;;-141.02;100.00;55844.97;5135136;27;20198;-75
2022/03/09 00:16:57;;;;;;;25.00;23.60;;;;;;;-141.02;100.00;55844.97;5135031;27;20757;-75
2022/03/09 00:19:25;;;;;;;22.73;21.53;;;;;;;-141.02;100.00;55844.97;5135013;27;20196;-74
2022/03/09 00:21:52;;;;;;;23.80;22.50;;;;;;;-141.02;100.00;55844.97;5135198;27;20224;-75
2022/03/09 00:24:19;;;;;;;24.17;22.57;;;;;;;-141.02;100.00;55844.97;5134402;27;20239;-74
2022/03/09 00:26:47;;;;;;;20.40;19.10;;;;;;;-141.02;100.00;55844.97;5135065;27;20292;-74
2022/03/09 00:29:14;;;;;;;28.23;26.33;;;;;;;-141.02;100.00;55844.97;5134841;27;20729;-74
2022/03/09 00:31:41;;;;;;;25.20;23.97;;;;;;;-141.02;100.00;55844.97;5135048;27;20271;-74
2022/03/09 00:34:08;;;;;;;20.43;19.43;;;;;;;-141.02;100.00;55844.97;5134662;27;20228;-74
2022/03/09 00:36:37;;;;;;;21.77;20.40;;;;;;;-141.02;100.00;55844.97;5134623;27;20283;-74
2022/03/09 00:39:04;;;;;;;29.80;26.97;;;;;;;-141.02;100.00;55844.97;5134375;27;20310;-74
2022/03/09 00:41:31;;;;;;;41.97;37.67;;;;;;;-141.02;100.00;55844.97;5134771;27;20277;-73
2022/03/09 00:43:58;;;;;;;50.93;44.43;;;;;;;-141.02;100.00;55844.97;5134748;27;20189;-73
2022/03/09 00:46:25;;;;;;;33.73;28.23;;;;;;;-141.02;100.00;55844.97;5134367;27;20283;-72
2022/03/09 00:48:52;;;;;;;32.83;28.47;;;;;;;-141.02;100.00;55844.97;5134325;27;20193;-73
2022/03/09 00:51:19;;;;;;;48.87;43.47;;;;;;;-141.02;100.00;55844.97;5134592;27;20269;-71
2022/03/09 00:53:47;;;;;;;28.73;25.97;;;;;;;-141.02;100.00;55844.97;5134547;27;20200;-72
2022/03/09 00:56:15;;;;;;;30.00;26.60;;;;;;;-141.02;100.00;55844.97;5134160;27;20242;-73
2022/03/09 00:58:42;;;;;;;28.67;23.90;;;;;;;-141.02;100.00;55844.97;5134492;27;20586;-73
2022/03/09 01:01:10;;;;;;;25.87;23.30;;;;;;;-141.02;100.00;55844.97;5134385;27;20224;-72
2022/03/09 01:03:37;;;;;;;30.73;27.27;;;;;;;-141.02;100.00;55844.97;5134350;27;20591;-73
2022/03/09 01:06:05;;;;;;;26.73;24.77;;;;;;;-141.02;100.00;55844.97;5134332;27;20219;-72
2022/03/09 01:08:32;;;;;;;76.67;69.50;;;;;;;-141.02;100.00;55844.97;5133918;27;20690;-72
2022/03/09 01:11:01;;;;;;;34.17;30.50;;;;;;;-141.02;100.00;55844.97;5134152;27;20196;-71
2022/03/09 01:13:28;;;;;;;40.73;32.37;;;;;;;-141.02;100.00;55844.97;5133873;27;20664;-72
2022/03/09 01:15:55;;;;;;;42.13;37.53;;;;;;;-141.02;100.00;55844.97;5133800;27;20253;-71
2022/03/09 01:18:22;;;;;;;35.53;31.83;;;;;;;-141.02;100.00;55844.97;5134170;27;20271;-73
2022/03/09 01:20:49;;;;;;;28.73;25.83;;;;;;;-141.02;100.00;55844.97;5134254;27;20264;-72
2022/03/09 01:23:16;;;;;;;79.83;72.57;;;;;;;-141.02;100.00;55844.97;5133821;27;20188;-73
2022/03/09 01:25:43;;;;;;;27.67;25.13;;;;;;;-141.02;100.00;55844.97;5133954;27;20192;-73
2022/03/09 01:28:11;;;;;;;27.57;24.83;;;;;;;-141.02;100.00;55844.97;5134044;27;20200;-71
2022/03/09 01:30:38;;;;;;;22.20;20.37;;;;;;;-141.02;100.00;55844.97;5133640;27;20193;-72
2022/03/09 01:33:06;;;;;;;27.90;25.43;;;;;;;-141.02;100.00;55844.97;5134662;27;20200;-72
2022/03/09 01:35:33;;;;;;;44.07;35.40;;;;;;;-141.02;100.00;55844.97;5133581;27;20232;-72
2022/03/09 01:38:00;;;;;;;27.13;24.77;;;;;;;-141.02;100.00;55844.97;5133492;27;20225;-73
2022/03/09 01:40:27;;;;;;;30.43;25.83;;;;;;;-141.02;100.00;55844.97;5133417;27;20188;-73
2022/03/09 01:42:55;;;;;;;64.97;59.53;;;;;;;-141.02;100.00;55844.97;5133901;27;20269;-73
2022/03/09 01:45:25;;;;;;;27.93;24.83;;;;;;;-141.02;100.00;55844.97;5133658;27;20265;-73
2022/03/09 01:47:52;;;;;;;28.80;25.87;;;;;;;-141.02;100.00;55844.97;5133349;27;20185;-73
2022/03/09 01:50:19;;;;;;;40.63;36.83;;;;;;;-141.02;100.00;55844.97;5133552;27;20237;-72
2022/03/09 01:52:46;;;;;;;29.17;26.57;;;;;;;-141.02;100.00;55844.97;5133273;27;20238;-72
2022/03/09 01:55:14;;;;;;;55.47;50.20;;;;;;;-141.02;100.00;55844.97;5133131;27;20685;-72
2022/03/09 01:57:41;;;;;;;33.33;29.90;;;;;;;-141.02;100.00;55844.97;5133490;27;20265;-72
2022/03/09 02:00:10;;;;;;;36.77;33.43;;;;;;;-141.02;100.00;55844.97;5133409;27;20188;-72
2022/03/09 02:02:39;;;;;;;24.67;22.53;;;;;;;-141.02;100.00;55844.97;5133321;27;20239;-72
2022/03/09 02:05:07;;;;;;;30.67;27.47;;;;;;;-141.02;100.00;55844.97;5133382;27;20188;-71
2022/03/09 02:10:21;;;;;;;25.57;22.97;;;;;;;-141.02;100.00;55844.97;5133448;27;20191;-73
2022/03/09 02:12:48;;;;;;;25.70;23.00;;;;;;;-141.02;100.00;55844.97;5132984;27;20283;-73
2022/03/09 02:15:15;;;;;;;22.90;20.83;;;;;;;-141.02;100.00;55844.97;5134143;27;20223;-73
2022/03/09 02:17:43;;;;;;;28.07;25.43;;;;;;;-141.02;100.00;55844.97;5132919;28;20231;-73
2022/03/09 02:20:11;;;;;;;22.83;21.43;;;;;;;-141.02;100.00;55844.97;5132930;28;20686;-72
2022/03/09 02:22:41;;;;;;;30.63;27.53;;;;;;;-141.02;100.00;55844.97;5132856;27;20717;-73
2022/03/09 02:25:10;;;;;;;24.77;22.70;;;;;;;-141.02;100.00;55844.97;5133221;27;20271;-73
2022/03/09 02:27:38;;;;;;;19.43;18.13;;;;;;;-141.02;100.00;55844.97;5133219;27;20641;-73
2022/03/09 02:30:06;;;;;;;22.00;20.60;;;;;;;-141.02;100.00;55844.97;5133178;27;20692;-73
2022/03/09 02:32:33;;;;;;;26.87;25.10;;;;;;;-141.02;100.00;55844.97;5132899;27;20230;-73
2022/03/09 02:35:00;;;;;;;21.10;19.90;;;;;;;-141.02;100.00;55844.97;5133628;28;20189;-72
2022/03/09 02:37:27;;;;;;;21.03;19.73;;;;;;;-141.02;100.00;55844.97;5132975;28;20227;-73
2022/03/09 02:39:56;;;;;;;21.17;19.97;;;;;;;-141.02;100.00;55844.97;5133014;28;20279;-73
2022/03/09 02:42:23;;;;;;;23.27;21.77;;;;;;;-141.02;100.00;55844.97;5132916;28;20310;-73
2022/03/09 02:44:50;;;;;;;20.43;19.30;;;;;;;-141.02;100.00;55844.97;5132660;28;20228;-74
2022/03/09 02:47:17;;;;;;;22.87;20.87;;;;;;;-141.02;100.00;55844.97;5134590;27;20200;-73
2022/03/09 02:49:44;;;;;;;28.07;25.17;;;;;;;-141.02;100.00;55844.97;5136953;27;20192;-73
2022/03/09 02:52:11;;;;;;;25.67;22.13;;;;;;;-141.02;100.00;55844.97;5136588;27;20238;-72
2022/03/09 02:54:38;;;;;;;29.37;26.83;;;;;;;-141.02;100.00;55844.97;5136940;27;20711;-72
2022/03/09 02:57:07;;;;;;;37.57;34.20;;;;;;;-141.02;100.00;55844.97;5136874;27;20220;-72
2022/03/09 02:59:35;;;;;;;31.23;26.87;;;;;;;-141.02;100.00;55844.97;5136836;27;20219;-72
2022/03/09 03:02:02;;;;;;;44.57;40.03;;;;;;;-141.02;100.00;55844.97;5136663;27;20231;-71
2022/03/09 03:04:29;;;;;;;25.03;22.20;;;;;;;-141.02;100.00;55844.97;5136713;27;20242;-73
2022/03/09 03:06:56;;;;;;;19.90;18.80;;;;;;;-141.02;100.00;55844.97;5136400;27;20690;-72
2022/03/09 03:09:23;;;;;;;21.57;20.37;;;;;;;-141.02;100.00;55844.97;5136642;27;20227;-72
2022/03/09 03:11:50;;;;;;;27.40;24.57;;;;;;;-141.02;100.00;55844.97;5136295;27;20283;-72
2022/03/09 03:14:19;;;;;;;24.53;22.93;;;;;;;-141.02;100.00;55844.97;5136589;27;20224;-72
2022/03/09 03:16:46;;;;;;;25.40;23.30;;;;;;;-141.02;100.00;55844.97;5136490;27;20228;-72
2022/03/09 03:19:13;;;;;;;31.60;28.30;;;;;;;-141.02;100.00;55844.97;5136482;27;20192;-73
2022/03/09 03:21:40;;;;;;;22.03;20.27;;;;;;;-141.02;100.00;55844.97;5136295;27;20242;-72
2022/03/09 03:24:07;;;;;;;29.20;26.90;;;;;;;-141.02;100.00;55844.97;5136322;27;20196;-73
2022/03/09 03:26:34;;;;;;;64.53;58.63;;;;;;;-141.02;100.00;55844.97;5136039;27;20723;-73
2022/03/09 03:29:01;;;;;;;39.97;36.20;;;;;;;-141.02;100.00;55844.97;5136342;27;20193;-71
2022/03/09 03:31:30;;;;;;;36.23;32.57;;;;;;;-141.02;100.00;55844.97;5135993;27;20552;-71
2022/03/09 03:33:57;;;;;;;44.27;40.47;;;;;;;-141.02;100.00;55844.97;5135871;27;20197;-71
2022/03/09 03:36:24;;;;;;;29.97;26.97;;;;;;;-141.02;100.00;55844.97;5136463;27;20197;-71
2022/03/09 03:38:52;;;;;;;42.60;33.53;;;;;;;-141.02;100.00;55844.97;5135877;27;20782;-71
2022/03/09 03:41:19;;;;;;;93.47;85.77;;;;;;;-141.02;100.00;55844.97;5135692;27;20671;-71
2022/03/09 03:43:46;;;;;;;25.83;23.73;;;;;;;-141.02;100.00;55844.97;5135662;27;20189;-71
2022/03/09 03:46:13;;;;;;;28.27;23.60;;;;;;;-141.02;100.00;55844.97;5135586;27;20283;-71
2022/03/09 03:48:42;;;;;;;73.63;66.90;;;;;;;-141.02;100.00;55844.97;5135561;27;20243;-70
2022/03/09 03:51:09;;;;;;;27.77;25.37;;;;;;;-141.02;100.00;55844.97;5135770;27;20336;-71
2022/03/09 03:53:36;;;;;;;30.30;26.83;;;;;;;-141.02;100.00;55844.97;5135827;27;20199;-70
2022/03/09 03:56:03;;;;;;;27.20;25.13;;;;;;;-141.02;100.00;55844.97;5135771;27;20204;-71
2022/03/09 03:58:30;;;;;;;27.70;25.23;;;;;;;-141.02;100.00;55844.97;5136226;27;20196;-72
2022/03/09 04:00:57;;;;;;;26.17;24.20;;;;;;;-141.02;100.00;55844.97;5135601;27;20268;-72
2022/03/09 04:03:23;;;;;;;26.93;24.93;;;;;;;-141.02;100.00;55844.97;5135513;27;20320;-72
2022/03/09 04:05:52;;;;;;;36.63;33.23;;;;;;;-141.02;100.00;55844.97;5135237;27;20224;-72
2022/03/09 04:08:19;;;;;;;161.60;147.60;;;;;;;-141.02;100.00;55844.97;5136033;27;20283;-71
2022/03/09 04:10:46;;;;;;;171.43;157.33;;;;;;;-141.02;100.00;55844.97;5135131;27;20611;-71
2022/03/09 04:13:13;;;;;;;25.77;24.07;;;;;;;-141.02;100.00;55844.97;5135137;27;20191;-70
2022/03/09 04:15:40;;;;;;;72.63;65.53;;;;;;;-141.02;100.00;55844.97;5135339;27;20315;-71
2022/03/09 04:18:07;;;;;;;157.73;143.70;;;;;;;-141.02;100.00;55844.97;5135332;27;20188;-71
2022/03/09 04:20:34;;;;;;;96.73;87.87;;;;;;;-141.02;100.00;55844.97;5135199;27;20203;-71
2022/03/09 04:23:06;;;;;;;33.13;29.87;;;;;;;-141.02;100.00;55844.97;5134836;27;20753;-71
2022/03/09 04:25:33;;;;;;;79.80;73.20;;;;;;;-141.02;100.00;55844.97;5134931;27;20192;-71
2022/03/09 04:28:00;;;;;;;45.77;41.27;;;;;;;-141.02;100.00;55844.97;5135084;27;20612;-74
2022/03/09 04:30:27;;;;;;;28.33;26.47;;;;;;;-141.02;100.00;55844.97;5135149;27;20272;-71
2022/03/09 04:32:54;;;;;;;24.00;22.60;;;;;;;-141.02;100.00;55844.97;5135024;27;20231;-71
2022/03/09 04:35:21;;;;;;;28.90;25.97;;;;;;;-141.02;100.00;55844.97;5135051;27;20231;-71
2022/03/09 04:37:48;;;;;;;37.63;34.73;;;;;;;-141.02;100.00;55844.97;5134559;27;20224;-70
2022/03/09 04:40:17;;;;;;;27.27;24.57;;;;;;;-141.02;100.00;55844.97;5134883;27;20251;-71
2022/03/09 04:42:44;;;;;;;23.07;21.47;;;;;;;-141.02;100.00;55844.97;5134453;27;20224;-71
2022/03/09 04:45:11;;;;;;;62.90;57.00;;;;;;;-141.02;100.00;55844.97;5134493;27;20729;-71
2022/03/09 04:47:38;;;;;;;30.93;28.17;;;;;;;-141.02;100.00;55844.97;5134751;27;20295;-71
2022/03/09 04:50:06;;;;;;;48.17;44.67;;;;;;;-141.02;100.00;55844.97;5134619;27;20189;-71
2022/03/09 04:52:33;;;;;;;40.40;36.80;;;;;;;-141.02;100.00;55844.97;5134337;27;20245;-71
2022/03/09 04:55:00;;;;;;;25.10;22.90;;;;;;;-141.02;100.00;55844.97;5134599;27;20224;-71
2022/03/09 04:57:29;;;;;;;30.87;27.77;;;;;;;-141.02;100.00;55844.97;5134469;27;20192;-70
2022/03/09 04:59:56;;;;;;;22.27;21.10;;;;;;;-141.02;100.00;55844.97;5134164;27;20270;-71
2022/03/09 05:02:23;;;;;;;24.83;23.43;;;;;;;-141.02;100.00;55844.97;5134373;27;20303;-70
2022/03/09 05:04:50;;;;;;;29.67;26.77;;;;;;;-141.02;100.00;55844.97;5134418;27;20223;-70
2022/03/09 05:07:17;;;;;;;47.53;43.43;;;;;;;-141.02;100.00;55844.97;5134326;27;20224;-71
2022/03/09 05:09:44;;;;;;;26.30;24.63;;;;;;;-141.02;100.00;55844.97;5133539;27;20232;-71
2022/03/09 05:12:11;;;;;;;23.87;22.30;;;;;;;-141.02;100.00;55844.97;5134193;27;20555;-71
2022/03/09 05:14:39;;;;;;;25.67;24.03;;;;;;;-141.02;100.00;55844.97;5134169;27;20196;-71
2022/03/09 05:17:06;;;;;;;25.77;24.27;;;;;;;-141.02;100.00;55844.97;5134145;27;20287;-72
2022/03/09 05:19:33;;;;;;;20.10;19.00;;;;;;;-141.02;100.00;55844.97;5133797;27;20723;-71
2022/03/09 05:22:00;;;;;;;20.87;19.53;;;;;;;-141.02;100.00;55844.97;5133995;27;20252;-72
2022/03/09 05:24:27;;;;;;;52.83;47.20;;;;;;;-141.02;100.00;55844.97;5133761;27;20188;-71
2022/03/09 05:26:54;;;;;;;24.83;23.50;;;;;;;-141.02;100.00;55844.97;5134173;27;20195;-71
2022/03/09 05:29:21;;;;;;;22.97;21.77;;;;;;;-141.02;100.00;55844.97;5133955;27;20604;-72
2022/03/09 05:31:49;;;;;;;22.90;21.70;;;;;;;-141.02;100.00;55844.97;5133852;27;20243;-71
2022/03/09 05:34:17;;;;;;;22.90;21.60;;;;;;;-141.02;100.00;55844.97;5133549;27;20658;-71
2022/03/09 05:36:44;;;;;;;23.23;21.93;;;;;;;-141.02;100.00;55844.97;5133540;27;20204;-72
2022/03/09 05:39:11;;;;;;;25.30;23.80;;;;;;;-141.02;100.00;55844.97;5133520;27;20224;-71
2022/03/09 05:41:38;;;;;;;27.67;24.53;;;;;;;-141.02;100.00;55844.97;5133784;27;20283;-72
2022/03/09 05:44:06;;;;;;;34.67;28.90;;;;;;;-141.02;100.00;55844.97;5133329;27;20316;-71
2022/03/09 05:46:33;;;;;;;22.27;20.43;;;;;;;-141.02;100.00;55844.97;5133367;27;20573;-71
2022/03/09 05:49:03;;;;;;;19.53;18.43;;;;;;;-141.02;100.00;55844.97;5133312;27;20224;-71
2022/03/09 05:51:30;;;;;;;23.63;21.83;;;;;;;-141.02;100.00;55844.97;5133299;27;20203;-71
2022/03/09 05:53:57;;;;;;;26.33;23.83;;;;;;;-141.02;100.00;55844.97;5133579;27;20682;-71
2022/03/09 05:56:24;;;;;;;30.17;26.97;;;;;;;-141.02;100.00;55844.97;5133188;27;20232;-71
2022/03/09 05:58:52;;;;;;;31.33;27.53;;;;;;;-141.02;100.00;55844.97;5133156;27;20239;-71
2022/03/09 06:01:20;;;;;;;23.73;22.17;;;;;;;-141.02;100.00;55844.97;5133386;27;20193;-71
2022/03/09 06:03:47;;;;;;;24.70;23.10;;;;;;;-141.02;100.00;55844.97;5133171;27;20284;-71
2022/03/09 06:06:16;;;;;;;23.63;22.33;;;;;;;-141.02;100.00;55844.97;5133325;27;20196;-71
2022/03/09 06:08:43;;;;;;;25.70;24.10;;;;;;;-141.02;100.00;55844.97;5133586;27;20193;-71
2022/03/09 06:11:10;;;;;;;21.87;20.57;;;;;;;-141.02;100.00;55844.97;5133009;27;20196;-71
2022/03/09 06:13:37;;;;;;;24.17;22.60;;;;;;;-141.02;100.00;55844.97;5133234;27;20200;-72
2022/03/09 06:16:04;;;;;;;22.37;21.27;;;;;;;-141.02;100.00;55844.97;5132954;28;20218;-71
2022/03/09 06:18:32;;;;;;;22.10;21.00;;;;;;;-141.02;100.00;55844.97;5133244;27;20224;-72
2022/03/09 06:20:59;;;;;;;23.10;21.90;;;;;;;-141.02;100.00;55844.97;5132891;27;20193;-71
2022/03/09 06:23:27;;;;;;;25.20;23.90;;;;;;;-141.02;100.00;55844.97;5137030;27;20775;-71
2022/03/09 06:25:55;;;;;;;25.10;23.80;;;;;;;-141.02;100.00;55844.97;5137137;27;20245;-71
2022/03/09 06:28:22;;;;;;;25.30;23.77;;;;;;;-141.02;100.00;55844.97;5137130;27;20283;-71
2022/03/09 06:30:49;;;;;;;26.43;24.73;;;;;;;-141.02;100.00;55844.97;5137088;27;20297;-71
2022/03/09 06:33:16;;;;;;;29.73;27.63;;;;;;;-141.02;100.00;55844.97;5137069;27;20230;-70
2022/03/09 06:35:43;;;;;;;28.80;26.77;;;;;;;-141.02;100.00;55844.97;5137373;27;20620;-70
2022/03/09 06:38:10;;;;;;;30.17;27.80;;;;;;;-141.02;100.00;55844.97;5136895;27;20269;-70
2022/03/09 06:40:39;;;;;;;23.10;21.70;;;;;;;-141.02;100.00;55844.97;5138092;27;20283;-71
2022/03/09 06:43:06;;;;;;;25.73;23.67;;;;;;;-141.02;100.00;55844.97;5137108;27;20255;-71
2022/03/09 06:45:33;;;;;;;26.47;24.50;;;;;;;-141.02;100.00;55844.97;5136866;27;20269;-71
2022/03/09 06:48:00;;;;;;;23.43;22.03;;;;;;;-141.02;100.00;55844.97;5137061;27;20226;-71
2022/03/09 06:50:27;;;;;;;24.60;22.90;;;;;;;-141.02;100.00;55844.97;5137852;27;20651;-71
2022/03/09 06:52:54;;;;;;;32.10;28.93;;;;;;;-141.02;100.00;55844.97;5137083;27;20268;-71
2022/03/09 06:55:21;;;;;;;29.00;26.60;;;;;;;-141.02;100.00;55844.97;5136938;27;20220;-71
2022/03/09 06:57:50;;;;;;;29.87;27.20;;;;;;;-141.02;100.00;55844.97;5136636;27;20199;-71
2022/03/09 07:00:18;;;;;;;30.00;27.43;;;;;;;-141.02;100.00;55844.97;5136895;27;20193;-71
2022/03/09 07:02:45;;;;;;;28.23;26.17;;;;;;;-141.02;100.00;55844.97;5136643;27;20781;-71
2022/03/09 07:05:13;;;;;;;27.00;24.90;;;;;;;-141.02;100.00;55844.97;5136723;27;20228;-71
2022/03/09 07:07:40;;;;;;;29.53;26.57;;;;;;;-141.02;100.00;55844.97;5136373;27;20185;-71
2022/03/09 07:10:11;;;;;;;28.80;26.17;;;;;;;-141.02;100.00;55844.97;5136402;27;20201;-71
2022/03/09 07:12:38;;;;;;;28.40;25.77;;;;;;;-141.02;100.00;55844.97;5136619;27;20204;-71
2022/03/09 07:15:08;;;;;;;26.70;24.57;;;;;;;-141.02;100.00;55844.97;5136267;27;20198;-71
2022/03/09 07:17:35;;;;;;;22.13;20.43;;;;;;;-141.02;100.00;55844.97;5136225;27;20192;-71
2022/03/09 07:20:02;;;;;;;28.30;25.93;;;;;;;-141.02;100.00;55844.97;5136258;27;20192;-71
2022/03/09 07:22:29;;;;;;;28.40;26.00;;;;;;;-141.02;100.00;55844.97;5136274;27;20583;-71
2022/03/09 07:24:56;;;;;;;29.07;26.23;;;;;;;-141.02;100.00;55844.97;5136073;27;20188;-71
2022/03/09 07:27:24;;;;;;;23.00;21.60;;;;;;;-141.02;100.00;55844.97;5136359;27;20192;-71
2022/03/09 07:29:51;;;;;;;29.23;26.37;;;;;;;-141.02;100.00;55844.97;5136278;27;20197;-72
2022/03/09 07:32:19;;;;;;;24.27;22.47;;;;;;;-141.02;100.00;55844.97;5135485;27;20196;-72
2022/03/09 07:34:46;;;;;;;24.47;22.97;;;;;;;-141.02;100.00;55844.97;5135925;27;20249;-72
2022/03/09 07:37:13;;;;;;;24.63;22.93;;;;;;;-141.02;100.00;55844.97;5135981;27;20236;-73
2022/03/09 07:39:40;;;;;;;33.57;30.97;;;;;;;-141.02;100.00;55844.97;5136186;27;20196;-72
2022/03/09 07:42:08;;;;;;;24.83;22.30;;;;;;;-141.02;100.00;55844.97;5135694;27;20196;-72
2022/03/09 07:44:35;;;;;;;23.57;21.67;;;;;;;-141.02;100.00;55844.97;5135926;27;20253;-72
2022/03/09 07:47:02;;;;;;;19.80;18.60;;;;;;;-141.02;100.00;55844.97;5136024;27;20253;-73
2022/03/09 07:49:33;;;;;;;21.57;20.10;;;;;;;-141.02;100.00;55844.97;5135620;27;20238;-73
2022/03/09 07:52:00;;;;;;;25.87;23.63;;;;;;;-141.02;100.00;55844.97;5135601;27;20673;-73
2022/03/09 07:54:28;;;;;;;24.00;22.20;;;;;;;-141.02;100.00;55844.97;5135833;27;20227;-73
2022/03/09 07:56:55;;;;;;;23.90;21.97;;;;;;;-141.02;100.00;55844.97;5135453;27;20208;-73
2022/03/09 07:59:22;;;;;;;23.00;21.07;;;;;;;-141.02;100.00;55844.97;5136034;27;20196;-73
2022/03/09 08:01:52;;;;;;;22.23;20.63;;;;;;;-141.02;100.00;55844.97;5135963;27;20283;-73
2022/03/09 08:04:19;;;;;;;27.03;24.73;;;;;;;-141.02;100.00;55844.97;5135755;27;20232;-72
2022/03/09 08:06:49;;;;;;;27.00;24.57;;;;;;;-141.02;100.00;55844.97;5135857;27;20271;-73
2022/03/09 08:09:16;;;;;;;22.47;20.97;;;;;;;-141.02;100.00;55844.97;5136104;27;20192;-72
2022/03/09 08:11:43;;;;;;;30.00;27.33;;;;;;;-141.02;100.00;55844.97;5135761;27;20223;-73
2022/03/09 08:14:11;;;;;;;24.93;22.93;;;;;;;-141.02;100.00;55844.97;5135343;27;20226;-72
2022/03/09 08:16:39;;;;;;;28.47;25.40;;;;;;;-141.02;100.00;55844.97;5134946;27;20196;-73
2022/03/09 08:19:06;;;;;;;26.13;24.27;;;;;;;-141.02;100.00;55844.97;5135069;27;20192;-72
2022/03/09 08:21:33;;;;;;;24.97;23.17;;;;;;;-141.02;100.00;55844.97;5134961;27;20196;-73
2022/03/09 08:24:01;;;;;;;27.90;25.67;;;;;;;-141.02;100.00;55844.97;5135078;27;20249;-71
2022/03/09 08:26:28;;;;;;;21.73;20.43;;;;;;;-141.02;100.00;55844.97;5135163;27;20271;-72
2022/03/09 08:28:55;;;;;;;24.90;22.33;;;;;;;-141.02;100.00;55844.97;5134858;27;20663;-71
2022/03/09 08:31:23;;;;;;;28.07;26.00;;;;;;;-141.02;100.00;55844.97;5134754;27;20193;-72
2022/03/09 08:33:50;;;;;;;22.60;20.97;;;;;;;-141.02;100.00;55844.97;5134756;27;20239;-71
2022/03/09 08:36:16;;;;;;;21.17;20.07;;;;;;;-141.02;100.00;55844.97;5134964;27;20224;-71
2022/03/09 08:38:43;;;;;;;23.43;21.63;;;;;;;-141.02;100.00;55844.97;5134506;27;20319;-71
2022/03/09 08:41:12;;;;;;;24.63;22.83;;;;;;;-141.02;100.00;55844.97;5134594;27;20627;-72
2022/03/09 08:43:39;;;;;;;25.13;23.30;;;;;;;-141.02;100.00;55844.97;5134698;27;20221;-71
2022/03/09 08:46:06;;;;;;;24.77;22.67;;;;;;;-141.02;100.00;55844.97;5134112;27;20227;-71
2022/03/09 08:48:33;;;;;;;23.77;22.37;;;;;;;-141.02;100.00;55844.97;5134469;27;20196;-71
2022/03/09 08:51:00;;;;;;;25.60;23.73;;;;;;;-141.02;100.00;55844.97;5134405;27;20696;-71
2022/03/09 08:53:27;;;;;;;25.43;23.50;;;;;;;-141.02;100.00;55844.97;5134372;27;20192;-71
2022/03/09 08:55:54;;;;;;;28.13;25.37;;;;;;;-141.02;100.00;55844.97;5134901;27;20241;-71
2022/03/09 08:58:22;;;;;;;28.77;26.23;;;;;;;-141.02;100.00;55844.97;5134777;27;20670;-71
2022/03/09 09:00:50;;;;;;;23.53;21.87;;;;;;;-141.02;100.00;55844.97;5134547;27;20192;-71
2022/03/09 09:03:17;;;;;;;25.03;23.17;;;;;;;-141.02;100.00;55844.97;5134096;27;20594;-71
2022/03/09 09:05:44;;;;;;;23.93;22.00;;;;;;;-141.02;100.00;55844.97;5134421;27;20249;-71
2022/03/09 09:08:11;;;;;;;21.67;20.27;;;;;;;-141.02;100.00;55844.97;5134651;27;20269;-72
2022/03/09 09:10:38;;;;;;;23.37;21.73;;;;;;;-141.02;100.00;55844.97;5134548;27;20203;-72
2022/03/09 09:13:06;;;;;;;27.70;25.37;;;;;;;-141.02;100.00;55844.97;5134245;27;20196;-72
2022/03/09 09:15:34;;;;;;;29.90;27.00;;;;;;;-141.02;100.00;55844.97;5134404;27;20200;-73
2022/03/09 09:18:02;;;;;;;29.03;26.77;;;;;;;-141.02;100.00;55844.97;5134260;27;20196;-73
2022/03/09 09:20:29;;;;;;;22.63;21.43;;;;;;;-141.02;100.00;55844.97;5134141;27;20224;-72
2022/03/09 09:22:57;;;;;;;24.10;22.57;;;;;;;-141.02;100.00;55844.97;5133695;27;20193;-72
2022/03/09 09:25:26;;;;;;;27.00;24.43;;;;;;;-141.02;100.00;55844.97;5134232;27;20188;-72
2022/03/09 09:27:54;;;;;;;34.23;25.60;;;;;;;-141.02;100.00;55844.97;5133995;27;20747;-72
2022/03/09 09:30:22;;;;;;;25.77;23.17;;;;;;;-141.02;100.00;55844.97;5134762;27;20275;-73
2022/03/09 09:32:51;;;;;;;24.03;22.03;;;;;;;-141.02;100.00;55844.97;5133793;27;20284;-73
2022/03/09 09:35:18;;;;;;;24.40;22.30;;;;;;;-141.02;100.00;55844.97;5133480;27;20200;-72
2022/03/09 09:37:46;;;;;;;26.07;24.17;;;;;;;-141.02;100.00;55844.97;5133954;27;20225;-73
2022/03/09 09:40:15;;;;;;;26.37;24.17;;;;;;;-141.02;100.00;55844.97;5133860;27;20612;-73
2022/03/09 09:42:42;;;;;;;23.53;22.03;;;;;;;-141.02;100.00;55844.97;5133451;27;20192;-73
2022/03/09 09:45:11;;;;;;;22.60;21.20;;;;;;;-141.02;100.00;55844.97;5133273;27;20224;-73
2022/03/09 09:47:39;;;;;;;23.30;21.03;;;;;;;-141.02;100.00;55844.97;5133652;27;20288;-73
2022/03/09 09:50:09;;;;;;;19.40;18.20;;;;;;;-141.02;100.00;55844.97;5133621;27;20346;-73
2022/03/09 09:52:36;;;;;;;19.23;18.13;;;;;;;-141.02;100.00;55844.97;5133583;27;20271;-73
2022/03/09 09:55:07;;;;;;;20.33;19.10;;;;;;;-141.02;100.00;55844.97;5133270;27;20655;-73
2022/03/09 09:57:35;;;;;;;20.80;19.37;;;;;;;-141.02;100.00;55844.97;5133190;27;20271;-74
2022/03/09 10:00:05;;;;;;;25.70;23.87;;;;;;;-141.02;100.00;55844.97;5133544;27;20192;-73
2022/03/09 10:02:32;;;;;;;25.37;23.20;;;;;;;-141.02;100.00;55844.97;5133464;27;20193;-74
2022/03/09 10:04:59;;;;;;;27.07;25.03;;;;;;;-141.02;100.00;55844.97;5133121;27;20231;-74
2022/03/09 10:07:28;;;;;;;23.60;22.20;;;;;;;-141.02;100.00;55844.97;5133388;27;20188;-74
2022/03/09 10:09:55;;;;;;;20.30;18.80;;;;;;;-141.02;100.00;55844.97;5133115;27;20727;-74
2022/03/09 10:12:28;;;;;;;24.57;22.93;;;;;;;-141.02;100.00;55844.97;5133290;27;20192;-74
2022/03/09 10:14:56;;;;;;;24.13;22.57;;;;;;;-141.02;100.00;55844.97;5133034;27;20189;-74
2022/03/09 10:17:25;;;;;;;22.27;20.93;;;;;;;-141.02;100.00;55844.97;5133289;27;20231;-74
2022/03/09 10:19:54;;;;;;;27.67;25.50;;;;;;;-141.02;100.00;55844.97;5133262;27;20242;-74
2022/03/09 10:22:32;;;;;;;25.93;23.93;;;;;;;-141.02;100.00;55844.97;5132946;27;20199;-74
2022/03/09 10:25:01;;;;;;;26.97;25.10;;;;;;;-141.02;100.00;55844.97;5133763;27;20216;-74
2022/03/09 10:27:40;;;;;;;27.63;25.53;;;;;;;-141.02;100.00;55844.97;5133724;28;20196;-74
2022/03/09 10:30:10;;;;;;;26.23;24.27;;;;;;;-141.02;100.00;55844.97;5133243;28;20216;-73
2022/03/09 10:32:52;;;;;;;28.50;26.20;;;;;;;-141.02;100.00;55844.97;5132833;27;20619;-75
2022/03/09 10:35:40;;;;;;;28.30;25.70;;;;;;;-141.02;100.00;55844.97;5132841;28;20570;-76
2022/03/09 10:38:21;;;;;;;31.07;27.83;;;;;;;-141.02;100.00;55844.97;5132807;27;20283;-74
2022/03/09 10:40:51;;;;;;;27.13;24.83;;;;;;;-141.02;100.00;55844.97;5133120;27;20232;-75
2022/03/09 10:43:20;;;;;;;24.37;22.67;;;;;;;-141.02;100.00;55844.97;5133105;27;20264;-75
2022/03/09 10:46:01;;;;;;;25.43;23.83;;;;;;;-141.02;100.00;55844.97;5132756;27;20666;-75
2022/03/09 10:48:49;;;;;;;28.43;26.33;;;;;;;-141.02;100.00;55844.97;5133048;28;20235;-75
2022/03/09 10:51:29;;;;;;;23.17;21.87;;;;;;;-141.02;100.00;55844.97;5133026;28;20181;-75
2022/03/09 10:53:59;;;;;;;27.37;25.17;;;;;;;-141.02;100.00;55844.97;5132782;27;20610;-75
2022/03/09 10:56:27;;;;;;;22.33;20.70;;;;;;;-141.02;100.00;55844.97;5132956;27;20192;-75
2022/03/09 10:58:54;;;;;;;24.53;22.73;;;;;;;-141.02;100.00;55844.97;5132960;28;20232;-74
2022/03/09 11:01:23;;;;;;;22.53;21.07;;;;;;;-141.02;100.00;55844.97;5132829;28;20564;-75